sensor_id;sensor_type;location;lat;lon;timestamp;temperature;humidity
18163;DHT22;9206;50.994;4.538;2023-04-23T00:01:48;8.50;99.90
18163;DHT22;9206;50.994;4.538;2023-04-23T00:04:48;8.60;99.90
18163;DHT22;9206;50.994;4.538;2023-04-23T00:07:42;8.60;99.90
18163;DHT22;9206;50.994;4.538;2023-04-23T00:10:30;8.60;99.90
18163;DHT22;9206;50.994;4.538;2023-04-23T00:13:36;8.50;99.90
18163;DHT22;9206;50.994;4.538;2023-04-23T00:16:27;8.60;99.90
18163;DHT22;9206;50.994;4.538;2023-04-23T00:19:21;8.50;99.90
18163;DHT22;9206;50.994;4.538;2023-04-23T00:22:13;8.50;99.90
18163;DHT22;9206;50.994;4.538;2023-04-23T00:25:02;8.60;99.90
18163;DHT22;9206;50.994;4.538;2023-04-23T00:27:52;8.70;99.90
18163;DHT22;9206;50.994;4.538;2023-04-23T00:30:40;8.80;99.90
18163;DHT22;9206;50.994;4.538;2023-04-23T00:33:33;8.80;99.90
18163;DHT22;9206;50.994;4.538;2023-04-23T00:36:29;8.90;99.90
18163;DHT22;9206;50.994;4.538;2023-04-23T00:39:21;9.00;99.90
18163;DHT22;9206;50.994;4.538;2023-04-23T00:42:12;9.00;99.90
18163;DHT22;9206;50.994;4.538;2023-04-23T00:45:02;9.00;99.90
18163;DHT22;9206;50.994;4.538;2023-04-23T00:47:53;9.10;99.90
18163;DHT22;9206;50.994;4.538;2023-04-23T00:50:41;9.10;99.90
18163;DHT22;9206;50.994;4.538;2023-04-23T00:53:34;9.10;99.90
18163;DHT22;9206;50.994;4.538;2023-04-23T00:56:26;9.10;99.90
18163;DHT22;9206;50.994;4.538;2023-04-23T00:59:21;9.20;99.90
18163;DHT22;9206;50.994;4.538;2023-04-23T01:02:08;9.20;99.90
18163;DHT22;9206;50.994;4.538;2023-04-23T01:05:08;9.20;99.90
18163;DHT22;9206;50.994;4.538;2023-04-23T01:07:56;9.30;99.90
18163;DHT22;9206;50.994;4.538;2023-04-23T01:10:50;9.30;99.90
18163;DHT22;9206;50.994;4.538;2023-04-23T01:13:40;9.30;99.90
18163;DHT22;9206;50.994;4.538;2023-04-23T01:16:30;9.20;99.90
18163;DHT22;9206;50.994;4.538;2023-04-23T01:19:24;9.20;99.90
18163;DHT22;9206;50.994;4.538;2023-04-23T01:22:14;9.20;99.90
18163;DHT22;9206;50.994;4.538;2023-04-23T01:25:02;9.20;99.90
18163;DHT22;9206;50.994;4.538;2023-04-23T01:27:52;9.10;99.90
18163;DHT22;9206;50.994;4.538;2023-04-23T01:30:42;9.20;99.90
18163;DHT22;9206;50.994;4.538;2023-04-23T01:33:30;9.10;99.90
18163;DHT22;9206;50.994;4.538;2023-04-23T01:36:24;9.10;99.90
18163;DHT22;9206;50.994;4.538;2023-04-23T01:39:19;9.10;99.90
18163;DHT22;9206;50.994;4.538;2023-04-23T01:42:13;9.00;99.90
18163;DHT22;9206;50.994;4.538;2023-04-23T01:45:01;9.00;99.90
18163;DHT22;9206;50.994;4.538;2023-04-23T01:47:49;9.00;99.90
18163;DHT22;9206;50.994;4.538;2023-04-23T01:50:38;9.00;99.90
18163;DHT22;9206;50.994;4.538;2023-04-23T01:53:29;9.00;99.90
18163;DHT22;9206;50.994;4.538;2023-04-23T01:56:35;9.00;99.90
18163;DHT22;9206;50.994;4.538;2023-04-23T01:59:23;9.10;99.90
18163;DHT22;9206;50.994;4.538;2023-04-23T02:02:11;9.10;99.90
18163;DHT22;9206;50.994;4.538;2023-04-23T02:05:05;9.10;99.90
18163;DHT22;9206;50.994;4.538;2023-04-23T02:07:59;9.20;99.90
18163;DHT22;9206;50.994;4.538;2023-04-23T02:10:57;9.20;99.90
18163;DHT22;9206;50.994;4.538;2023-04-23T02:13:46;9.20;99.90
18163;DHT22;9206;50.994;4.538;2023-04-23T02:16:34;9.30;99.90
18163;DHT22;9206;50.994;4.538;2023-04-23T02:19:21;9.30;99.90
18163;DHT22;9206;50.994;4.538;2023-04-23T02:22:15;9.30;99.90
18163;DHT22;9206;50.994;4.538;2023-04-23T02:25:06;9.20;99.90
18163;DHT22;9206;50.994;4.538;2023-04-23T02:27:57;9.20;99.90
18163;DHT22;9206;50.994;4.538;2023-04-23T02:30:51;9.20;99.90
18163;DHT22;9206;50.994;4.538;2023-04-23T02:33:40;9.10;99.90
18163;DHT22;9206;50.994;4.538;2023-04-23T02:36:28;9.10;99.90
18163;DHT22;9206;50.994;4.538;2023-04-23T02:39:17;9.00;99.90
18163;DHT22;9206;50.994;4.538;2023-04-23T02:42:12;9.00;99.90
18163;DHT22;9206;50.994;4.538;2023-04-23T02:45:00;8.90;99.90
18163;DHT22;9206;50.994;4.538;2023-04-23T02:47:55;8.80;99.90
18163;DHT22;9206;50.994;4.538;2023-04-23T02:50:49;8.70;99.90
18163;DHT22;9206;50.994;4.538;2023-04-23T02:53:41;8.60;99.90
18163;DHT22;9206;50.994;4.538;2023-04-23T02:56:28;8.60;99.90
18163;DHT22;9206;50.994;4.538;2023-04-23T02:59:19;8.50;99.90
18163;DHT22;9206;50.994;4.538;2023-04-23T03:02:08;8.40;99.90
18163;DHT22;9206;50.994;4.538;2023-04-23T03:04:57;8.40;99.90
18163;DHT22;9206;50.994;4.538;2023-04-23T03:07:50;8.30;99.90
18163;DHT22;9206;50.994;4.538;2023-04-23T03:10:39;8.30;99.90
18163;DHT22;9206;50.994;4.538;2023-04-23T03:13:27;8.30;99.90
18163;DHT22;9206;50.994;4.538;2023-04-23T03:16:15;8.30;99.90
18163;DHT22;9206;50.994;4.538;2023-04-23T03:19:03;8.20;99.90
18163;DHT22;9206;50.994;4.538;2023-04-23T03:21:52;8.10;99.90
18163;DHT22;9206;50.994;4.538;2023-04-23T03:24:51;8.10;99.90
18163;DHT22;9206;50.994;4.538;2023-04-23T03:27:39;8.10;99.90
18163;DHT22;9206;50.994;4.538;2023-04-23T03:30:37;8.00;99.90
18163;DHT22;9206;50.994;4.538;2023-04-23T03:33:42;8.00;99.90
18163;DHT22;9206;50.994;4.538;2023-04-23T03:36:29;8.10;99.90
18163;DHT22;9206;50.994;4.538;2023-04-23T03:39:21;8.10;99.90
18163;DHT22;9206;50.994;4.538;2023-04-23T03:42:09;8.00;99.90
18163;DHT22;9206;50.994;4.538;2023-04-23T03:44:56;8.00;99.90
18163;DHT22;9206;50.994;4.538;2023-04-23T03:47:54;8.00;99.90
18163;DHT22;9206;50.994;4.538;2023-04-23T03:50:45;8.00;99.90
18163;DHT22;9206;50.994;4.538;2023-04-23T03:53:32;8.00;99.90
18163;DHT22;9206;50.994;4.538;2023-04-23T03:56:21;8.10;99.90
18163;DHT22;9206;50.994;4.538;2023-04-23T03:59:10;8.10;99.90
18163;DHT22;9206;50.994;4.538;2023-04-23T04:01:59;8.00;99.90
18163;DHT22;9206;50.994;4.538;2023-04-23T04:04:51;8.10;99.90
18163;DHT22;9206;50.994;4.538;2023-04-23T04:07:42;8.00;99.90
18163;DHT22;9206;50.994;4.538;2023-04-23T04:10:35;8.00;99.90
18163;DHT22;9206;50.994;4.538;2023-04-23T04:13:24;8.00;99.90
18163;DHT22;9206;50.994;4.538;2023-04-23T04:16:12;8.00;99.90
18163;DHT22;9206;50.994;4.538;2023-04-23T04:18:59;8.00;99.90
18163;DHT22;9206;50.994;4.538;2023-04-23T04:21:47;8.00;99.90
18163;DHT22;9206;50.994;4.538;2023-04-23T04:24:39;7.90;99.90
18163;DHT22;9206;50.994;4.538;2023-04-23T04:27:30;7.90;99.90
18163;DHT22;9206;50.994;4.538;2023-04-23T04:30:22;8.00;99.90
18163;DHT22;9206;50.994;4.538;2023-04-23T04:33:12;7.90;99.90
18163;DHT22;9206;50.994;4.538;2023-04-23T04:36:13;8.00;99.90
18163;DHT22;9206;50.994;4.538;2023-04-23T04:39:02;8.00;99.90
18163;DHT22;9206;50.994;4.538;2023-04-23T04:41:50;8.00;99.90
18163;DHT22;9206;50.994;4.538;2023-04-23T04:44:41;8.00;99.90
18163;DHT22;9206;50.994;4.538;2023-04-23T04:47:31;8.00;99.90
18163;DHT22;9206;50.994;4.538;2023-04-23T04:50:19;8.00;99.90
18163;DHT22;9206;50.994;4.538;2023-04-23T04:53:09;8.00;99.90
18163;DHT22;9206;50.994;4.538;2023-04-23T04:55:59;8.00;99.90
18163;DHT22;9206;50.994;4.538;2023-04-23T04:58:47;8.10;99.90
18163;DHT22;9206;50.994;4.538;2023-04-23T05:01:40;8.10;99.90
18163;DHT22;9206;50.994;4.538;2023-04-23T05:04:32;8.10;99.90
18163;DHT22;9206;50.994;4.538;2023-04-23T05:07:26;8.20;99.90
18163;DHT22;9206;50.994;4.538;2023-04-23T05:10:13;8.20;99.90
18163;DHT22;9206;50.994;4.538;2023-04-23T05:13:07;8.20;99.90
18163;DHT22;9206;50.994;4.538;2023-04-23T05:16:00;8.30;99.90
18163;DHT22;9206;50.994;4.538;2023-04-23T05:18:50;8.40;99.90
18163;DHT22;9206;50.994;4.538;2023-04-23T05:21:40;8.50;99.90
18163;DHT22;9206;50.994;4.538;2023-04-23T05:24:33;8.60;99.90
18163;DHT22;9206;50.994;4.538;2023-04-23T05:27:21;8.70;99.90
18163;DHT22;9206;50.994;4.538;2023-04-23T05:30:10;8.80;99.90
18163;DHT22;9206;50.994;4.538;2023-04-23T05:33:07;8.90;99.90
18163;DHT22;9206;50.994;4.538;2023-04-23T05:36:01;9.00;99.90
18163;DHT22;9206;50.994;4.538;2023-04-23T05:38:50;9.20;99.90
18163;DHT22;9206;50.994;4.538;2023-04-23T05:41:43;9.40;99.90
18163;DHT22;9206;50.994;4.538;2023-04-23T05:44:30;9.50;99.90
18163;DHT22;9206;50.994;4.538;2023-04-23T05:47:19;9.70;99.90
18163;DHT22;9206;50.994;4.538;2023-04-23T05:50:09;10.10;99.90
18163;DHT22;9206;50.994;4.538;2023-04-23T05:52:58;10.80;99.90
18163;DHT22;9206;50.994;4.538;2023-04-23T05:55:53;11.50;99.90
18163;DHT22;9206;50.994;4.538;2023-04-23T05:58:41;12.20;99.90
18163;DHT22;9206;50.994;4.538;2023-04-23T06:01:31;12.80;99.90
18163;DHT22;9206;50.994;4.538;2023-04-23T06:04:24;13.50;99.90
18163;DHT22;9206;50.994;4.538;2023-04-23T06:07:18;14.40;99.90
18163;DHT22;9206;50.994;4.538;2023-04-23T06:10:25;15.10;99.90
18163;DHT22;9206;50.994;4.538;2023-04-23T06:13:15;15.70;99.90
18163;DHT22;9206;50.994;4.538;2023-04-23T06:16:04;16.40;99.90
18163;DHT22;9206;50.994;4.538;2023-04-23T06:18:57;16.80;99.90
18163;DHT22;9206;50.994;4.538;2023-04-23T06:21:47;17.40;99.90
18163;DHT22;9206;50.994;4.538;2023-04-23T06:24:37;17.50;99.90
18163;DHT22;9206;50.994;4.538;2023-04-23T06:27:24;17.40;99.90
18163;DHT22;9206;50.994;4.538;2023-04-23T06:30:17;17.80;99.90
18163;DHT22;9206;50.994;4.538;2023-04-23T06:33:07;18.20;99.90
18163;DHT22;9206;50.994;4.538;2023-04-23T06:35:58;18.20;99.90
18163;DHT22;9206;50.994;4.538;2023-04-23T06:39:02;18.10;99.90
18163;DHT22;9206;50.994;4.538;2023-04-23T06:41:55;17.70;99.90
18163;DHT22;9206;50.994;4.538;2023-04-23T06:44:45;18.20;99.90
18163;DHT22;9206;50.994;4.538;2023-04-23T06:47:40;18.50;99.90
18163;DHT22;9206;50.994;4.538;2023-04-23T06:50:53;18.50;99.90
18163;DHT22;9206;50.994;4.538;2023-04-23T06:53:52;18.20;99.90
18163;DHT22;9206;50.994;4.538;2023-04-23T06:56:56;18.20;99.90
18163;DHT22;9206;50.994;4.538;2023-04-23T06:59:46;17.90;99.90
18163;DHT22;9206;50.994;4.538;2023-04-23T07:03:14;18.30;99.90
18163;DHT22;9206;50.994;4.538;2023-04-23T07:09:09;18.00;99.90
18163;DHT22;9206;50.994;4.538;2023-04-23T07:12:04;18.30;99.90
18163;DHT22;9206;50.994;4.538;2023-04-23T07:14:51;18.60;99.90
18163;DHT22;9206;50.994;4.538;2023-04-23T07:31:50;20.80;99.90
18163;DHT22;9206;50.994;4.538;2023-04-23T07:34:39;20.80;99.90
18163;DHT22;9206;50.994;4.538;2023-04-23T07:37:29;20.50;99.90
18163;DHT22;9206;50.994;4.538;2023-04-23T07:40:20;20.60;99.90
18163;DHT22;9206;50.994;4.538;2023-04-23T07:43:17;20.50;99.90
18163;DHT22;9206;50.994;4.538;2023-04-23T07:46:05;20.90;99.90
18163;DHT22;9206;50.994;4.538;2023-04-23T07:49:05;20.90;99.90
18163;DHT22;9206;50.994;4.538;2023-04-23T07:51:56;21.00;99.90
18163;DHT22;9206;50.994;4.538;2023-04-23T07:54:48;21.10;99.90
18163;DHT22;9206;50.994;4.538;2023-04-23T07:57:36;20.90;99.90
18163;DHT22;9206;50.994;4.538;2023-04-23T08:00:49;21.70;99.90
18163;DHT22;9206;50.994;4.538;2023-04-23T08:03:40;21.90;99.90
18163;DHT22;9206;50.994;4.538;2023-04-23T08:06:45;22.10;99.90
18163;DHT22;9206;50.994;4.538;2023-04-23T08:09:39;22.40;99.90
18163;DHT22;9206;50.994;4.538;2023-04-23T08:12:29;21.40;99.90
18163;DHT22;9206;50.994;4.538;2023-04-23T08:15:21;20.80;99.90
18163;DHT22;9206;50.994;4.538;2023-04-23T08:18:20;20.50;99.90
18163;DHT22;9206;50.994;4.538;2023-04-23T08:21:10;20.80;99.90
18163;DHT22;9206;50.994;4.538;2023-04-23T08:24:02;21.20;99.90
18163;DHT22;9206;50.994;4.538;2023-04-23T08:26:51;20.80;99.90
18163;DHT22;9206;50.994;4.538;2023-04-23T08:29:39;20.80;99.90
18163;DHT22;9206;50.994;4.538;2023-04-23T08:32:29;20.10;99.90
18163;DHT22;9206;50.994;4.538;2023-04-23T08:35:17;20.00;99.90
18163;DHT22;9206;50.994;4.538;2023-04-23T08:38:12;20.30;99.90
18163;DHT22;9206;50.994;4.538;2023-04-23T08:41:21;20.20;99.90
18163;DHT22;9206;50.994;4.538;2023-04-23T08:44:45;20.10;99.90
18163;DHT22;9206;50.994;4.538;2023-04-23T08:47:41;20.40;99.90
18163;DHT22;9206;50.994;4.538;2023-04-23T08:50:43;20.50;99.90
18163;DHT22;9206;50.994;4.538;2023-04-23T08:53:31;20.00;99.90
18163;DHT22;9206;50.994;4.538;2023-04-23T08:56:23;19.30;99.90
18163;DHT22;9206;50.994;4.538;2023-04-23T08:59:20;18.80;99.90
18163;DHT22;9206;50.994;4.538;2023-04-23T09:02:09;19.30;99.90
18163;DHT22;9206;50.994;4.538;2023-04-23T09:05:01;19.30;99.90
18163;DHT22;9206;50.994;4.538;2023-04-23T09:07:57;19.20;99.90
18163;DHT22;9206;50.994;4.538;2023-04-23T09:10:47;19.40;99.90
18163;DHT22;9206;50.994;4.538;2023-04-23T09:13:37;19.30;99.90
18163;DHT22;9206;50.994;4.538;2023-04-23T09:16:32;18.80;99.90
18163;DHT22;9206;50.994;4.538;2023-04-23T09:19:38;18.80;99.90
18163;DHT22;9206;50.994;4.538;2023-04-23T09:22:37;18.80;99.90
18163;DHT22;9206;50.994;4.538;2023-04-23T09:25:49;18.90;99.90
18163;DHT22;9206;50.994;4.538;2023-04-23T09:28:42;18.80;99.90
18163;DHT22;9206;50.994;4.538;2023-04-23T09:31:29;19.10;99.90
18163;DHT22;9206;50.994;4.538;2023-04-23T09:34:21;19.30;99.90
18163;DHT22;9206;50.994;4.538;2023-04-23T09:37:12;19.40;99.90
18163;DHT22;9206;50.994;4.538;2023-04-23T09:40:04;19.10;99.90
18163;DHT22;9206;50.994;4.538;2023-04-23T09:42:57;18.70;99.90
18163;DHT22;9206;50.994;4.538;2023-04-23T09:45:49;19.20;99.90
18163;DHT22;9206;50.994;4.538;2023-04-23T09:48:43;18.70;99.90
18163;DHT22;9206;50.994;4.538;2023-04-23T09:51:31;18.50;99.90
18163;DHT22;9206;50.994;4.538;2023-04-23T09:54:24;18.50;99.90
18163;DHT22;9206;50.994;4.538;2023-04-23T09:57:18;18.60;99.90
18163;DHT22;9206;50.994;4.538;2023-04-23T10:00:16;18.70;99.90
18163;DHT22;9206;50.994;4.538;2023-04-23T10:03:11;19.10;99.90
18163;DHT22;9206;50.994;4.538;2023-04-23T10:06:20;19.30;99.90
18163;DHT22;9206;50.994;4.538;2023-04-23T10:09:15;19.20;99.90
18163;DHT22;9206;50.994;4.538;2023-04-23T10:12:10;18.30;99.90
18163;DHT22;9206;50.994;4.538;2023-04-23T10:14:58;18.30;99.90
18163;DHT22;9206;50.994;4.538;2023-04-23T10:17:46;18.70;99.90
18163;DHT22;9206;50.994;4.538;2023-04-23T10:20:41;19.00;99.90
18163;DHT22;9206;50.994;4.538;2023-04-23T10:23:48;18.20;99.90
18163;DHT22;9206;50.994;4.538;2023-04-23T10:27:03;17.80;99.90
18163;DHT22;9206;50.994;4.538;2023-04-23T10:30:12;17.60;99.90
18163;DHT22;9206;50.994;4.538;2023-04-23T10:34:26;17.60;99.90
18163;DHT22;9206;50.994;4.538;2023-04-23T10:37:08;17.20;99.90
18163;DHT22;9206;50.994;4.538;2023-04-23T10:40:31;16.80;99.90
18163;DHT22;9206;50.994;4.538;2023-04-23T10:43:21;17.60;99.90
18163;DHT22;9206;50.994;4.538;2023-04-23T10:46:26;17.80;99.90
18163;DHT22;9206;50.994;4.538;2023-04-23T10:49:16;18.20;99.90
18163;DHT22;9206;50.994;4.538;2023-04-23T10:52:17;18.40;99.90
18163;DHT22;9206;50.994;4.538;2023-04-23T10:55:16;18.20;99.90
18163;DHT22;9206;50.994;4.538;2023-04-23T10:58:10;18.10;99.90
18163;DHT22;9206;50.994;4.538;2023-04-23T11:01:08;18.00;99.90
18163;DHT22;9206;50.994;4.538;2023-04-23T11:04:19;17.90;99.90
18163;DHT22;9206;50.994;4.538;2023-04-23T11:07:08;18.00;99.90
18163;DHT22;9206;50.994;4.538;2023-04-23T11:10:09;18.10;99.90
18163;DHT22;9206;50.994;4.538;2023-04-23T11:13:18;17.90;99.90
18163;DHT22;9206;50.994;4.538;2023-04-23T11:16:15;17.80;99.90
18163;DHT22;9206;50.994;4.538;2023-04-23T11:19:07;18.00;99.90
18163;DHT22;9206;50.994;4.538;2023-04-23T11:22:03;18.40;99.90
18163;DHT22;9206;50.994;4.538;2023-04-23T11:24:51;18.10;99.90
18163;DHT22;9206;50.994;4.538;2023-04-23T11:27:49;18.20;99.90
18163;DHT22;9206;50.994;4.538;2023-04-23T11:30:39;18.60;99.90
18163;DHT22;9206;50.994;4.538;2023-04-23T11:33:29;18.90;99.90
18163;DHT22;9206;50.994;4.538;2023-04-23T11:36:17;18.70;99.90
18163;DHT22;9206;50.994;4.538;2023-04-23T11:39:11;18.10;99.90
18163;DHT22;9206;50.994;4.538;2023-04-23T11:42:02;17.50;99.90
18163;DHT22;9206;50.994;4.538;2023-04-23T11:44:52;17.70;99.90
18163;DHT22;9206;50.994;4.538;2023-04-23T11:47:42;17.70;99.90
18163;DHT22;9206;50.994;4.538;2023-04-23T11:54:50;17.70;99.90
18163;DHT22;9206;50.994;4.538;2023-04-23T11:58:13;17.60;99.90
18163;DHT22;9206;50.994;4.538;2023-04-23T12:01:19;17.80;99.90
18163;DHT22;9206;50.994;4.538;2023-04-23T12:07:03;18.30;99.90
18163;DHT22;9206;50.994;4.538;2023-04-23T12:13:18;17.70;99.90
18163;DHT22;9206;50.994;4.538;2023-04-23T12:16:51;17.30;99.90
18163;DHT22;9206;50.994;4.538;2023-04-23T12:19:41;17.00;99.90
18163;DHT22;9206;50.994;4.538;2023-04-23T12:23:10;17.00;99.90
18163;DHT22;9206;50.994;4.538;2023-04-23T12:26:17;16.80;99.90
18163;DHT22;9206;50.994;4.538;2023-04-23T12:29:07;16.40;99.90
18163;DHT22;9206;50.994;4.538;2023-04-23T12:32:02;16.20;99.90
18163;DHT22;9206;50.994;4.538;2023-04-23T12:35:15;15.80;99.90
18163;DHT22;9206;50.994;4.538;2023-04-23T12:41:37;14.90;99.90
18163;DHT22;9206;50.994;4.538;2023-04-23T12:44:25;14.60;99.90
18163;DHT22;9206;50.994;4.538;2023-04-23T12:47:17;14.50;99.90
18163;DHT22;9206;50.994;4.538;2023-04-23T12:50:08;14.40;99.90
18163;DHT22;9206;50.994;4.538;2023-04-23T12:53:01;14.20;99.90
18163;DHT22;9206;50.994;4.538;2023-04-23T12:55:56;14.00;99.90
18163;DHT22;9206;50.994;4.538;2023-04-23T12:58:46;13.90;99.90
18163;DHT22;9206;50.994;4.538;2023-04-23T13:01:35;13.90;99.90
18163;DHT22;9206;50.994;4.538;2023-04-23T13:04:51;13.90;99.90
18163;DHT22;9206;50.994;4.538;2023-04-23T13:07:40;13.90;99.90
18163;DHT22;9206;50.994;4.538;2023-04-23T13:10:38;13.90;99.90
18163;DHT22;9206;50.994;4.538;2023-04-23T13:13:29;14.00;99.90
18163;DHT22;9206;50.994;4.538;2023-04-23T13:16:18;13.80;99.90
18163;DHT22;9206;50.994;4.538;2023-04-23T13:19:07;13.80;99.90
18163;DHT22;9206;50.994;4.538;2023-04-23T13:22:17;13.80;99.90
18163;DHT22;9206;50.994;4.538;2023-04-23T13:25:20;13.70;99.90
18163;DHT22;9206;50.994;4.538;2023-04-23T13:28:15;13.90;99.90
18163;DHT22;9206;50.994;4.538;2023-04-23T13:31:10;14.00;99.90
18163;DHT22;9206;50.994;4.538;2023-04-23T13:34:04;14.00;99.90
18163;DHT22;9206;50.994;4.538;2023-04-23T13:36:59;13.90;99.90
18163;DHT22;9206;50.994;4.538;2023-04-23T13:39:52;14.00;99.90
18163;DHT22;9206;50.994;4.538;2023-04-23T13:42:45;14.10;99.90
18163;DHT22;9206;50.994;4.538;2023-04-23T13:45:37;14.10;99.90
18163;DHT22;9206;50.994;4.538;2023-04-23T13:48:33;13.90;99.90
18163;DHT22;9206;50.994;4.538;2023-04-23T13:52:05;13.80;99.90
18163;DHT22;9206;50.994;4.538;2023-04-23T13:55:02;13.70;99.90
18163;DHT22;9206;50.994;4.538;2023-04-23T13:57:55;13.70;99.90
18163;DHT22;9206;50.994;4.538;2023-04-23T14:00:50;13.70;99.90
18163;DHT22;9206;50.994;4.538;2023-04-23T14:03:39;13.70;99.90
18163;DHT22;9206;50.994;4.538;2023-04-23T14:06:26;13.80;99.90
18163;DHT22;9206;50.994;4.538;2023-04-23T14:09:17;13.70;99.90
18163;DHT22;9206;50.994;4.538;2023-04-23T14:12:16;13.70;99.90
18163;DHT22;9206;50.994;4.538;2023-04-23T14:15:07;13.70;99.90
18163;DHT22;9206;50.994;4.538;2023-04-23T14:17:58;13.70;99.90
18163;DHT22;9206;50.994;4.538;2023-04-23T14:20:45;13.50;99.90
18163;DHT22;9206;50.994;4.538;2023-04-23T14:23:50;13.40;99.90
18163;DHT22;9206;50.994;4.538;2023-04-23T14:26:52;13.30;99.90
18163;DHT22;9206;50.994;4.538;2023-04-23T14:29:45;13.20;99.90
18163;DHT22;9206;50.994;4.538;2023-04-23T14:32:35;13.30;99.90
18163;DHT22;9206;50.994;4.538;2023-04-23T14:35:25;13.20;99.90
18163;DHT22;9206;50.994;4.538;2023-04-23T14:38:14;13.30;99.90
18163;DHT22;9206;50.994;4.538;2023-04-23T14:41:04;13.50;99.90
18163;DHT22;9206;50.994;4.538;2023-04-23T14:43:52;13.70;99.90
18163;DHT22;9206;50.994;4.538;2023-04-23T14:46:44;13.80;99.90
18163;DHT22;9206;50.994;4.538;2023-04-23T14:49:31;14.00;99.90
18163;DHT22;9206;50.994;4.538;2023-04-23T14:52:19;14.00;99.90
18163;DHT22;9206;50.994;4.538;2023-04-23T14:55:07;14.10;99.90
18163;DHT22;9206;50.994;4.538;2023-04-23T14:57:55;14.20;99.90
18163;DHT22;9206;50.994;4.538;2023-04-23T15:00:43;14.30;99.90
18163;DHT22;9206;50.994;4.538;2023-04-23T15:03:38;14.10;99.90
18163;DHT22;9206;50.994;4.538;2023-04-23T15:06:31;14.10;99.90
18163;DHT22;9206;50.994;4.538;2023-04-23T15:09:22;13.90;99.90
18163;DHT22;9206;50.994;4.538;2023-04-23T15:15:49;13.90;99.90
18163;DHT22;9206;50.994;4.538;2023-04-23T15:18:45;14.00;99.90
18163;DHT22;9206;50.994;4.538;2023-04-23T15:21:35;14.20;99.90
18163;DHT22;9206;50.994;4.538;2023-04-23T15:28:10;14.40;99.90
18163;DHT22;9206;50.994;4.538;2023-04-23T15:31:23;14.30;99.90
18163;DHT22;9206;50.994;4.538;2023-04-23T15:34:29;14.40;99.90
18163;DHT22;9206;50.994;4.538;2023-04-23T15:37:25;14.50;99.90
18163;DHT22;9206;50.994;4.538;2023-04-23T15:40:40;14.50;99.90
18163;DHT22;9206;50.994;4.538;2023-04-23T15:43:29;14.30;99.90
18163;DHT22;9206;50.994;4.538;2023-04-23T15:46:36;14.20;99.90
18163;DHT22;9206;50.994;4.538;2023-04-23T15:49:28;14.30;99.90
18163;DHT22;9206;50.994;4.538;2023-04-23T15:52:19;14.20;99.90
18163;DHT22;9206;50.994;4.538;2023-04-23T15:55:12;14.10;99.90
18163;DHT22;9206;50.994;4.538;2023-04-23T15:58:10;14.10;99.90
18163;DHT22;9206;50.994;4.538;2023-04-23T16:01:00;14.10;99.90
18163;DHT22;9206;50.994;4.538;2023-04-23T16:03:59;14.10;99.90
18163;DHT22;9206;50.994;4.538;2023-04-23T16:06:54;14.10;99.90
18163;DHT22;9206;50.994;4.538;2023-04-23T16:09:57;14.10;99.90
18163;DHT22;9206;50.994;4.538;2023-04-23T16:12:50;14.10;99.90
18163;DHT22;9206;50.994;4.538;2023-04-23T16:15:40;14.20;99.90
18163;DHT22;9206;50.994;4.538;2023-04-23T16:18:29;14.10;99.90
18163;DHT22;9206;50.994;4.538;2023-04-23T16:21:22;14.10;99.90
18163;DHT22;9206;50.994;4.538;2023-04-23T16:24:20;14.10;99.90
18163;DHT22;9206;50.994;4.538;2023-04-23T16:27:11;14.10;99.90
18163;DHT22;9206;50.994;4.538;2023-04-23T16:30:01;14.10;99.90
18163;DHT22;9206;50.994;4.538;2023-04-23T16:33:26;14.00;99.90
18163;DHT22;9206;50.994;4.538;2023-04-23T16:36:27;14.00;99.90
18163;DHT22;9206;50.994;4.538;2023-04-23T16:46:46;14.10;99.90
18163;DHT22;9206;50.994;4.538;2023-04-23T16:49:53;14.10;99.90
18163;DHT22;9206;50.994;4.538;2023-04-23T16:52:43;14.20;99.90
18163;DHT22;9206;50.994;4.538;2023-04-23T16:55:32;14.10;99.90
18163;DHT22;9206;50.994;4.538;2023-04-23T16:58:35;14.10;99.90
18163;DHT22;9206;50.994;4.538;2023-04-23T17:01:24;14.00;99.90
18163;DHT22;9206;50.994;4.538;2023-04-23T17:04:15;13.40;99.90
18163;DHT22;9206;50.994;4.538;2023-04-23T17:07:03;12.80;99.90
18163;DHT22;9206;50.994;4.538;2023-04-23T17:09:53;12.40;99.90
18163;DHT22;9206;50.994;4.538;2023-04-23T17:12:44;12.10;99.90
18163;DHT22;9206;50.994;4.538;2023-04-23T17:15:32;12.00;99.90
18163;DHT22;9206;50.994;4.538;2023-04-23T17:19:06;12.00;99.90
18163;DHT22;9206;50.994;4.538;2023-04-23T17:30:09;11.60;99.90
18163;DHT22;9206;50.994;4.538;2023-04-23T17:42:24;11.30;99.90
18163;DHT22;9206;50.994;4.538;2023-04-23T17:44:31;11.20;99.90
18163;DHT22;9206;50.994;4.538;2023-04-23T17:47:20;11.00;99.90
18163;DHT22;9206;50.994;4.538;2023-04-23T17:50:15;10.90;99.90
18163;DHT22;9206;50.994;4.538;2023-04-23T17:53:28;10.80;99.90
18163;DHT22;9206;50.994;4.538;2023-04-23T17:56:28;10.70;99.90
18163;DHT22;9206;50.994;4.538;2023-04-23T18:05:31;10.50;99.90
18163;DHT22;9206;50.994;4.538;2023-04-23T18:08:24;10.50;99.90
18163;DHT22;9206;50.994;4.538;2023-04-23T18:11:21;10.50;99.90
18163;DHT22;9206;50.994;4.538;2023-04-23T18:14:27;10.50;99.90
18163;DHT22;9206;50.994;4.538;2023-04-23T18:17:20;10.40;99.90
18163;DHT22;9206;50.994;4.538;2023-04-23T18:23:31;10.40;99.90
18163;DHT22;9206;50.994;4.538;2023-04-23T18:26:43;10.40;99.90
18163;DHT22;9206;50.994;4.538;2023-04-23T18:29:56;10.40;99.90
18163;DHT22;9206;50.994;4.538;2023-04-23T18:33:24;10.40;99.90
18163;DHT22;9206;50.994;4.538;2023-04-23T18:44:35;10.50;99.90
18163;DHT22;9206;50.994;4.538;2023-04-23T18:48:02;10.50;99.90
18163;DHT22;9206;50.994;4.538;2023-04-23T18:54:14;10.50;99.90
18163;DHT22;9206;50.994;4.538;2023-04-23T19:01:04;10.40;99.90
18163;DHT22;9206;50.994;4.538;2023-04-23T19:04:09;10.40;99.90
18163;DHT22;9206;50.994;4.538;2023-04-23T19:10:17;10.30;99.90
18163;DHT22;9206;50.994;4.538;2023-04-23T19:13:14;10.20;99.90
18163;DHT22;9206;50.994;4.538;2023-04-23T19:16:12;10.20;99.90
18163;DHT22;9206;50.994;4.538;2023-04-23T19:19:11;10.30;99.90
18163;DHT22;9206;50.994;4.538;2023-04-23T19:22:05;10.20;99.90
18163;DHT22;9206;50.994;4.538;2023-04-23T19:25:25;10.20;99.90
18163;DHT22;9206;50.994;4.538;2023-04-23T19:28:15;10.10;99.90
18163;DHT22;9206;50.994;4.538;2023-04-23T19:31:04;10.00;99.90
18163;DHT22;9206;50.994;4.538;2023-04-23T19:34:20;10.00;99.90
18163;DHT22;9206;50.994;4.538;2023-04-23T19:37:34;10.00;99.90
18163;DHT22;9206;50.994;4.538;2023-04-23T19:40:37;10.00;99.90
18163;DHT22;9206;50.994;4.538;2023-04-23T19:43:49;10.00;99.90
18163;DHT22;9206;50.994;4.538;2023-04-23T19:46:38;10.00;99.90
18163;DHT22;9206;50.994;4.538;2023-04-23T19:49:44;10.00;99.90
18163;DHT22;9206;50.994;4.538;2023-04-23T19:52:40;10.00;99.90
18163;DHT22;9206;50.994;4.538;2023-04-23T19:55:32;10.00;99.90
18163;DHT22;9206;50.994;4.538;2023-04-23T19:58:25;10.00;99.90
18163;DHT22;9206;50.994;4.538;2023-04-23T20:01:19;10.00;99.90
18163;DHT22;9206;50.994;4.538;2023-04-23T20:04:08;10.00;99.90
18163;DHT22;9206;50.994;4.538;2023-04-23T20:07:04;10.00;99.90
18163;DHT22;9206;50.994;4.538;2023-04-23T20:09:52;10.10;99.90
18163;DHT22;9206;50.994;4.538;2023-04-23T20:13:35;10.10;99.90
18163;DHT22;9206;50.994;4.538;2023-04-23T20:16:18;10.00;99.90
18163;DHT22;9206;50.994;4.538;2023-04-23T20:19:25;10.00;99.90